Aviation Digital Data Service (ADDS)

Output produced by METARs form (0243 UTC 24 July 2017)
found at http://www.aviationweather.gov/adds/metars/
 
TAF EEEI 232330Z 2400/2424 36008KT 9999 FEW035 
     PROB40 
     TEMPO 2400/2406 VRB02KT 0500 BCFG BKN002 
     TEMPO 2421/2424 2000 BR BKN004
       
EEKE 240150Z AUTO 03002KT 9999NDV NCD 10/10 Q1014
EETN 240220Z 24002KT 9999 MIFG NSC 11/10 Q1013
TAF EETN 232303Z 2400/2424 VRB02KT CAVOK 
     TEMPO 2400/2405 0300 BCFG BKN002 
     BECMG 2406/2408 36010KT 
     TEMPO 2411/2420 BKN015 
     PROB40 
     TEMPO 2420/2424 VRB02KT 2000 BR BKN005
       
EETU 240150Z AUTO 24002KT 9999 NCD 09/07 Q1013
TAF EETU 232000Z 2321/2403 VRB02KT 8000 NSC 
     TEMPO 2322/2403 0300 BCFG BKN002